sensor_id;sensor_type;location;lat;lon;timestamp;P1;durP1;ratioP1;P2;durP2;ratioP2
25127;SDS011;13107;51.304;6.866;2023-11-22T00:02:09;17.80;;;10.20;;
25127;SDS011;13107;51.304;6.866;2023-11-22T00:06:11;18.62;;;9.43;;
25127;SDS011;13107;51.304;6.866;2023-11-22T00:10:13;12.70;;;8.68;;
25127;SDS011;13107;51.304;6.866;2023-11-22T00:14:15;15.27;;;9.57;;
25127;SDS011;13107;51.304;6.866;2023-11-22T00:18:17;14.90;;;9.30;;
25127;SDS011;13107;51.304;6.866;2023-11-22T00:22:19;14.38;;;8.90;;
25127;SDS011;13107;51.304;6.866;2023-11-22T00:26:20;13.07;;;9.15;;
25127;SDS011;13107;51.304;6.866;2023-11-22T00:30:22;11.80;;;8.60;;
25127;SDS011;13107;51.304;6.866;2023-11-22T00:34:24;13.35;;;8.23;;
25127;SDS011;13107;51.304;6.866;2023-11-22T00:38:26;12.32;;;9.05;;
25127;SDS011;13107;51.304;6.866;2023-11-22T00:42:28;15.02;;;8.93;;
25127;SDS011;13107;51.304;6.866;2023-11-22T00:46:29;16.73;;;8.40;;
25127;SDS011;13107;51.304;6.866;2023-11-22T00:50:31;11.68;;;8.30;;
25127;SDS011;13107;51.304;6.866;2023-11-22T00:54:33;12.10;;;7.47;;
25127;SDS011;13107;51.304;6.866;2023-11-22T00:58:35;12.23;;;7.62;;
25127;SDS011;13107;51.304;6.866;2023-11-22T01:02:36;13.57;;;7.87;;
25127;SDS011;13107;51.304;6.866;2023-11-22T01:06:39;17.35;;;8.30;;
25127;SDS011;13107;51.304;6.866;2023-11-22T01:10:42;12.02;;;7.10;;
25127;SDS011;13107;51.304;6.866;2023-11-22T01:14:43;14.05;;;7.72;;
25127;SDS011;13107;51.304;6.866;2023-11-22T01:18:45;14.48;;;7.50;;
25127;SDS011;13107;51.304;6.866;2023-11-22T01:22:47;11.98;;;7.97;;
25127;SDS011;13107;51.304;6.866;2023-11-22T01:26:49;16.70;;;7.87;;
25127;SDS011;13107;51.304;6.866;2023-11-22T01:30:51;10.25;;;6.72;;
25127;SDS011;13107;51.304;6.866;2023-11-22T01:34:52;11.32;;;7.40;;
25127;SDS011;13107;51.304;6.866;2023-11-22T01:38:54;11.70;;;7.45;;
25127;SDS011;13107;51.304;6.866;2023-11-22T01:42:57;13.02;;;8.23;;
25127;SDS011;13107;51.304;6.866;2023-11-22T01:46:59;13.18;;;8.25;;
25127;SDS011;13107;51.304;6.866;2023-11-22T01:51:01;13.70;;;7.80;;
25127;SDS011;13107;51.304;6.866;2023-11-22T01:55:03;16.08;;;8.05;;
25127;SDS011;13107;51.304;6.866;2023-11-22T01:59:06;13.23;;;7.93;;
25127;SDS011;13107;51.304;6.866;2023-11-22T02:03:08;17.42;;;9.57;;
25127;SDS011;13107;51.304;6.866;2023-11-22T02:07:10;12.10;;;7.95;;
25127;SDS011;13107;51.304;6.866;2023-11-22T02:11:12;14.20;;;8.10;;
25127;SDS011;13107;51.304;6.866;2023-11-22T02:15:18;11.90;;;7.03;;
25127;SDS011;13107;51.304;6.866;2023-11-22T02:19:19;14.10;;;7.18;;
25127;SDS011;13107;51.304;6.866;2023-11-22T02:23:22;10.98;;;6.95;;
25127;SDS011;13107;51.304;6.866;2023-11-22T02:27:23;11.02;;;7.05;;
25127;SDS011;13107;51.304;6.866;2023-11-22T02:31:25;12.50;;;6.78;;
25127;SDS011;13107;51.304;6.866;2023-11-22T02:35:28;9.13;;;6.22;;
25127;SDS011;13107;51.304;6.866;2023-11-22T02:39:35;11.25;;;6.32;;
25127;SDS011;13107;51.304;6.866;2023-11-22T02:43:46;11.05;;;6.18;;
25127;SDS011;13107;51.304;6.866;2023-11-22T02:47:48;11.80;;;6.53;;
25127;SDS011;13107;51.304;6.866;2023-11-22T02:51:50;10.65;;;6.82;;
25127;SDS011;13107;51.304;6.866;2023-11-22T02:55:52;11.00;;;6.12;;
25127;SDS011;13107;51.304;6.866;2023-11-22T02:59:57;11.80;;;6.50;;
25127;SDS011;13107;51.304;6.866;2023-11-22T03:03:59;9.27;;;5.80;;
25127;SDS011;13107;51.304;6.866;2023-11-22T03:08:01;12.73;;;5.22;;
25127;SDS011;13107;51.304;6.866;2023-11-22T03:12:03;9.20;;;6.30;;
25127;SDS011;13107;51.304;6.866;2023-11-22T03:16:05;9.20;;;5.82;;
25127;SDS011;13107;51.304;6.866;2023-11-22T03:20:07;10.88;;;5.82;;
25127;SDS011;13107;51.304;6.866;2023-11-22T03:24:12;7.68;;;5.72;;
25127;SDS011;13107;51.304;6.866;2023-11-22T03:28:14;9.80;;;6.07;;
25127;SDS011;13107;51.304;6.866;2023-11-22T03:32:15;15.07;;;6.10;;
25127;SDS011;13107;51.304;6.866;2023-11-22T03:36:18;10.73;;;5.80;;
25127;SDS011;13107;51.304;6.866;2023-11-22T03:40:20;8.52;;;4.87;;
25127;SDS011;13107;51.304;6.866;2023-11-22T03:44:22;10.15;;;5.60;;
25127;SDS011;13107;51.304;6.866;2023-11-22T03:48:23;10.73;;;5.93;;
25127;SDS011;13107;51.304;6.866;2023-11-22T03:52:27;10.52;;;6.15;;
25127;SDS011;13107;51.304;6.866;2023-11-22T03:56:29;9.38;;;6.05;;
25127;SDS011;13107;51.304;6.866;2023-11-22T04:00:31;11.02;;;6.62;;
25127;SDS011;13107;51.304;6.866;2023-11-22T04:04:33;11.48;;;6.20;;
25127;SDS011;13107;51.304;6.866;2023-11-22T04:08:36;12.48;;;7.32;;
25127;SDS011;13107;51.304;6.866;2023-11-22T04:12:39;12.73;;;7.55;;
25127;SDS011;13107;51.304;6.866;2023-11-22T04:16:40;12.77;;;7.55;;
25127;SDS011;13107;51.304;6.866;2023-11-22T04:20:42;11.07;;;6.78;;
25127;SDS011;13107;51.304;6.866;2023-11-22T04:24:45;9.05;;;5.80;;
25127;SDS011;13107;51.304;6.866;2023-11-22T04:28:47;8.27;;;5.43;;
25127;SDS011;13107;51.304;6.866;2023-11-22T04:32:48;9.75;;;5.85;;
25127;SDS011;13107;51.304;6.866;2023-11-22T04:36:50;9.55;;;5.12;;
25127;SDS011;13107;51.304;6.866;2023-11-22T04:40:52;10.77;;;6.25;;
25127;SDS011;13107;51.304;6.866;2023-11-22T04:44:54;9.85;;;6.28;;
25127;SDS011;13107;51.304;6.866;2023-11-22T04:48:56;10.02;;;5.93;;
25127;SDS011;13107;51.304;6.866;2023-11-22T04:52:58;12.35;;;6.53;;
25127;SDS011;13107;51.304;6.866;2023-11-22T04:57:03;10.52;;;6.18;;
25127;SDS011;13107;51.304;6.866;2023-11-22T05:01:05;10.88;;;5.93;;
25127;SDS011;13107;51.304;6.866;2023-11-22T05:05:07;9.18;;;5.97;;
25127;SDS011;13107;51.304;6.866;2023-11-22T05:09:11;9.75;;;5.75;;
25127;SDS011;13107;51.304;6.866;2023-11-22T05:13:14;12.88;;;6.82;;
25127;SDS011;13107;51.304;6.866;2023-11-22T05:17:16;9.75;;;6.30;;
25127;SDS011;13107;51.304;6.866;2023-11-22T05:21:18;11.85;;;6.28;;
25127;SDS011;13107;51.304;6.866;2023-11-22T05:25:20;9.65;;;5.60;;
25127;SDS011;13107;51.304;6.866;2023-11-22T05:29:22;11.75;;;6.28;;
25127;SDS011;13107;51.304;6.866;2023-11-22T05:33:23;11.68;;;6.78;;
25127;SDS011;13107;51.304;6.866;2023-11-22T05:37:25;10.18;;;6.80;;
25127;SDS011;13107;51.304;6.866;2023-11-22T05:41:28;9.90;;;6.20;;
25127;SDS011;13107;51.304;6.866;2023-11-22T05:45:29;10.57;;;6.45;;
25127;SDS011;13107;51.304;6.866;2023-11-22T05:49:31;9.90;;;5.93;;
25127;SDS011;13107;51.304;6.866;2023-11-22T05:53:33;14.82;;;6.80;;
25127;SDS011;13107;51.304;6.866;2023-11-22T05:57:35;11.02;;;7.00;;
25127;SDS011;13107;51.304;6.866;2023-11-22T06:01:37;12.23;;;6.40;;
25127;SDS011;13107;51.304;6.866;2023-11-22T06:05:39;11.48;;;6.97;;
25127;SDS011;13107;51.304;6.866;2023-11-22T06:09:41;8.23;;;6.12;;
25127;SDS011;13107;51.304;6.866;2023-11-22T06:13:43;12.05;;;6.72;;
25127;SDS011;13107;51.304;6.866;2023-11-22T06:17:45;10.95;;;6.20;;
25127;SDS011;13107;51.304;6.866;2023-11-22T06:21:46;14.20;;;6.95;;
25127;SDS011;13107;51.304;6.866;2023-11-22T06:25:48;15.93;;;7.43;;
25127;SDS011;13107;51.304;6.866;2023-11-22T06:29:50;9.88;;;6.30;;
25127;SDS011;13107;51.304;6.866;2023-11-22T06:33:52;12.52;;;6.68;;
25127;SDS011;13107;51.304;6.866;2023-11-22T06:37:54;11.63;;;6.18;;
25127;SDS011;13107;51.304;6.866;2023-11-22T06:41:56;10.27;;;6.07;;
25127;SDS011;13107;51.304;6.866;2023-11-22T06:45:57;12.00;;;6.50;;
25127;SDS011;13107;51.304;6.866;2023-11-22T06:49:59;11.63;;;5.82;;
25127;SDS011;13107;51.304;6.866;2023-11-22T06:54:01;14.57;;;6.70;;
25127;SDS011;13107;51.304;6.866;2023-11-22T06:58:02;11.80;;;6.93;;
25127;SDS011;13107;51.304;6.866;2023-11-22T07:02:04;12.35;;;7.68;;
25127;SDS011;13107;51.304;6.866;2023-11-22T07:06:08;13.35;;;7.80;;
25127;SDS011;13107;51.304;6.866;2023-11-22T07:10:11;18.27;;;10.63;;
25127;SDS011;13107;51.304;6.866;2023-11-22T07:14:15;11.48;;;6.68;;
25127;SDS011;13107;51.304;6.866;2023-11-22T07:18:17;10.63;;;5.90;;
25127;SDS011;13107;51.304;6.866;2023-11-22T07:22:19;12.02;;;6.60;;
25127;SDS011;13107;51.304;6.866;2023-11-22T07:26:23;11.05;;;6.75;;
25127;SDS011;13107;51.304;6.866;2023-11-22T07:30:28;9.75;;;6.45;;
25127;SDS011;13107;51.304;6.866;2023-11-22T07:34:32;12.65;;;6.07;;
25127;SDS011;13107;51.304;6.866;2023-11-22T07:38:34;12.43;;;7.25;;
25127;SDS011;13107;51.304;6.866;2023-11-22T07:42:39;11.82;;;6.70;;
25127;SDS011;13107;51.304;6.866;2023-11-22T07:46:42;10.27;;;6.75;;
25127;SDS011;13107;51.304;6.866;2023-11-22T07:50:45;10.77;;;6.62;;
25127;SDS011;13107;51.304;6.866;2023-11-22T07:54:50;18.77;;;6.75;;
25127;SDS011;13107;51.304;6.866;2023-11-22T07:58:51;11.52;;;7.07;;
25127;SDS011;13107;51.304;6.866;2023-11-22T08:02:53;12.43;;;7.18;;
25127;SDS011;13107;51.304;6.866;2023-11-22T08:06:55;11.15;;;6.87;;
25127;SDS011;13107;51.304;6.866;2023-11-22T08:10:58;11.35;;;7.07;;
25127;SDS011;13107;51.304;6.866;2023-11-22T08:14:59;10.77;;;6.45;;
25127;SDS011;13107;51.304;6.866;2023-11-22T08:19:03;15.25;;;6.43;;
25127;SDS011;13107;51.304;6.866;2023-11-22T08:23:06;11.95;;;6.97;;
25127;SDS011;13107;51.304;6.866;2023-11-22T08:27:09;16.27;;;7.03;;
25127;SDS011;13107;51.304;6.866;2023-11-22T08:31:11;9.80;;;6.47;;
25127;SDS011;13107;51.304;6.866;2023-11-22T08:35:13;12.13;;;6.57;;
25127;SDS011;13107;51.304;6.866;2023-11-22T08:39:16;11.02;;;6.50;;
25127;SDS011;13107;51.304;6.866;2023-11-22T08:43:18;11.82;;;6.37;;
25127;SDS011;13107;51.304;6.866;2023-11-22T08:47:24;11.65;;;6.03;;
25127;SDS011;13107;51.304;6.866;2023-11-22T08:51:26;10.07;;;6.10;;
25127;SDS011;13107;51.304;6.866;2023-11-22T08:55:28;13.98;;;7.12;;
25127;SDS011;13107;51.304;6.866;2023-11-22T08:59:29;11.40;;;6.80;;
25127;SDS011;13107;51.304;6.866;2023-11-22T09:03:34;11.45;;;7.32;;
25127;SDS011;13107;51.304;6.866;2023-11-22T09:07:36;13.40;;;7.03;;
25127;SDS011;13107;51.304;6.866;2023-11-22T09:11:39;10.02;;;6.97;;
25127;SDS011;13107;51.304;6.866;2023-11-22T09:15:41;10.60;;;6.90;;
25127;SDS011;13107;51.304;6.866;2023-11-22T09:19:43;12.25;;;6.72;;
25127;SDS011;13107;51.304;6.866;2023-11-22T09:23:45;11.07;;;6.72;;
25127;SDS011;13107;51.304;6.866;2023-11-22T09:27:50;12.20;;;7.35;;
25127;SDS011;13107;51.304;6.866;2023-11-22T09:32:00;11.98;;;6.45;;
25127;SDS011;13107;51.304;6.866;2023-11-22T09:36:04;11.82;;;7.25;;
25127;SDS011;13107;51.304;6.866;2023-11-22T09:40:12;11.30;;;7.15;;
25127;SDS011;13107;51.304;6.866;2023-11-22T09:44:15;9.68;;;6.80;;
25127;SDS011;13107;51.304;6.866;2023-11-22T09:48:18;10.55;;;6.22;;
25127;SDS011;13107;51.304;6.866;2023-11-22T09:52:24;9.95;;;5.57;;
25127;SDS011;13107;51.304;6.866;2023-11-22T09:56:30;9.20;;;5.82;;
25127;SDS011;13107;51.304;6.866;2023-11-22T10:00:33;9.15;;;5.93;;
25127;SDS011;13107;51.304;6.866;2023-11-22T10:04:35;8.45;;;5.87;;
25127;SDS011;13107;51.304;6.866;2023-11-22T10:08:37;8.05;;;4.57;;
25127;SDS011;13107;51.304;6.866;2023-11-22T10:12:39;6.72;;;4.78;;
25127;SDS011;13107;51.304;6.866;2023-11-22T10:16:46;7.35;;;4.90;;
25127;SDS011;13107;51.304;6.866;2023-11-22T10:20:59;8.30;;;4.68;;
25127;SDS011;13107;51.304;6.866;2023-11-22T10:25:04;7.93;;;4.70;;
25127;SDS011;13107;51.304;6.866;2023-11-22T10:29:09;6.25;;;3.92;;
25127;SDS011;13107;51.304;6.866;2023-11-22T10:33:14;7.10;;;3.80;;
25127;SDS011;13107;51.304;6.866;2023-11-22T10:37:16;5.47;;;3.72;;
25127;SDS011;13107;51.304;6.866;2023-11-22T10:41:21;6.85;;;3.10;;
25127;SDS011;13107;51.304;6.866;2023-11-22T10:45:26;6.97;;;3.42;;
25127;SDS011;13107;51.304;6.866;2023-11-22T10:49:32;8.25;;;3.30;;
25127;SDS011;13107;51.304;6.866;2023-11-22T10:53:35;9.35;;;3.65;;
25127;SDS011;13107;51.304;6.866;2023-11-22T10:57:40;5.35;;;2.83;;
25127;SDS011;13107;51.304;6.866;2023-11-22T11:01:49;4.72;;;3.10;;
25127;SDS011;13107;51.304;6.866;2023-11-22T11:06:01;4.22;;;2.65;;
25127;SDS011;13107;51.304;6.866;2023-11-22T11:10:08;5.70;;;3.17;;
25127;SDS011;13107;51.304;6.866;2023-11-22T11:14:20;5.25;;;2.65;;
25127;SDS011;13107;51.304;6.866;2023-11-22T11:18:23;3.55;;;2.55;;
25127;SDS011;13107;51.304;6.866;2023-11-22T11:22:27;5.87;;;2.87;;
25127;SDS011;13107;51.304;6.866;2023-11-22T11:26:28;4.93;;;2.58;;
25127;SDS011;13107;51.304;6.866;2023-11-22T11:34:50;4.35;;;2.67;;
25127;SDS011;13107;51.304;6.866;2023-11-22T11:38:52;5.00;;;2.50;;
25127;SDS011;13107;51.304;6.866;2023-11-22T11:42:58;5.50;;;2.53;;
25127;SDS011;13107;51.304;6.866;2023-11-22T11:47:08;4.70;;;2.75;;
25127;SDS011;13107;51.304;6.866;2023-11-22T11:51:14;3.87;;;2.30;;
25127;SDS011;13107;51.304;6.866;2023-11-22T11:55:17;6.37;;;2.37;;
25127;SDS011;13107;51.304;6.866;2023-11-22T11:59:18;5.57;;;2.90;;
25127;SDS011;13107;51.304;6.866;2023-11-22T12:03:20;2.75;;;1.95;;
25127;SDS011;13107;51.304;6.866;2023-11-22T12:07:23;3.53;;;2.20;;
25127;SDS011;13107;51.304;6.866;2023-11-22T12:11:24;5.07;;;2.08;;
25127;SDS011;13107;51.304;6.866;2023-11-22T12:15:26;3.67;;;2.65;;
25127;SDS011;13107;51.304;6.866;2023-11-22T12:19:29;5.00;;;3.03;;
25127;SDS011;13107;51.304;6.866;2023-11-22T12:23:32;4.00;;;2.03;;
25127;SDS011;13107;51.304;6.866;2023-11-22T12:27:38;5.60;;;1.80;;
25127;SDS011;13107;51.304;6.866;2023-11-22T12:31:48;8.23;;;2.37;;
25127;SDS011;13107;51.304;6.866;2023-11-22T12:35:56;3.78;;;2.33;;
25127;SDS011;13107;51.304;6.866;2023-11-22T12:39:57;6.55;;;2.50;;
25127;SDS011;13107;51.304;6.866;2023-11-22T12:44:05;5.10;;;2.95;;
25127;SDS011;13107;51.304;6.866;2023-11-22T12:48:24;4.25;;;2.58;;
25127;SDS011;13107;51.304;6.866;2023-11-22T12:52:27;6.55;;;2.70;;
25127;SDS011;13107;51.304;6.866;2023-11-22T12:56:29;4.10;;;2.55;;
25127;SDS011;13107;51.304;6.866;2023-11-22T13:00:31;3.65;;;1.95;;
25127;SDS011;13107;51.304;6.866;2023-11-22T13:04:34;2.50;;;1.80;;
25127;SDS011;13107;51.304;6.866;2023-11-22T13:08:36;3.78;;;2.08;;
25127;SDS011;13107;51.304;6.866;2023-11-22T13:12:37;5.82;;;2.28;;
25127;SDS011;13107;51.304;6.866;2023-11-22T13:16:39;3.70;;;2.55;;
25127;SDS011;13107;51.304;6.866;2023-11-22T13:20:41;4.15;;;2.58;;
25127;SDS011;13107;51.304;6.866;2023-11-22T13:24:44;5.90;;;2.45;;
25127;SDS011;13107;51.304;6.866;2023-11-22T13:28:45;6.03;;;2.60;;
25127;SDS011;13107;51.304;6.866;2023-11-22T13:32:47;3.87;;;2.30;;
25127;SDS011;13107;51.304;6.866;2023-11-22T13:36:53;3.45;;;2.30;;
25127;SDS011;13107;51.304;6.866;2023-11-22T13:40:56;6.12;;;2.50;;
25127;SDS011;13107;51.304;6.866;2023-11-22T13:44:58;4.07;;;2.58;;
25127;SDS011;13107;51.304;6.866;2023-11-22T13:49:00;8.25;;;2.67;;
25127;SDS011;13107;51.304;6.866;2023-11-22T13:53:02;5.57;;;2.50;;
25127;SDS011;13107;51.304;6.866;2023-11-22T13:57:05;5.57;;;2.92;;
25127;SDS011;13107;51.304;6.866;2023-11-22T14:01:07;5.75;;;2.62;;
25127;SDS011;13107;51.304;6.866;2023-11-22T14:05:13;5.20;;;2.58;;
25127;SDS011;13107;51.304;6.866;2023-11-22T14:09:16;5.60;;;2.78;;
25127;SDS011;13107;51.304;6.866;2023-11-22T14:13:21;4.40;;;2.67;;
25127;SDS011;13107;51.304;6.866;2023-11-22T14:17:23;3.58;;;2.42;;
25127;SDS011;13107;51.304;6.866;2023-11-22T14:21:25;3.95;;;2.25;;
25127;SDS011;13107;51.304;6.866;2023-11-22T14:25:27;4.07;;;2.65;;
25127;SDS011;13107;51.304;6.866;2023-11-22T14:29:30;9.73;;;2.70;;
25127;SDS011;13107;51.304;6.866;2023-11-22T14:33:32;4.82;;;2.33;;
25127;SDS011;13107;51.304;6.866;2023-11-22T14:37:34;3.95;;;2.40;;
25127;SDS011;13107;51.304;6.866;2023-11-22T14:41:36;7.30;;;2.72;;
25127;SDS011;13107;51.304;6.866;2023-11-22T14:45:38;6.70;;;3.50;;
25127;SDS011;13107;51.304;6.866;2023-11-22T14:49:40;8.95;;;4.10;;
25127;SDS011;13107;51.304;6.866;2023-11-22T14:53:47;5.75;;;4.00;;
25127;SDS011;13107;51.304;6.866;2023-11-22T14:57:49;7.55;;;3.85;;
25127;SDS011;13107;51.304;6.866;2023-11-22T15:01:51;3.85;;;2.50;;
25127;SDS011;13107;51.304;6.866;2023-11-22T15:05:54;5.10;;;2.47;;
25127;SDS011;13107;51.304;6.866;2023-11-22T15:09:55;3.87;;;2.08;;
25127;SDS011;13107;51.304;6.866;2023-11-22T15:13:57;3.17;;;1.95;;
25127;SDS011;13107;51.304;6.866;2023-11-22T15:17:59;2.87;;;1.75;;
25127;SDS011;13107;51.304;6.866;2023-11-22T15:22:00;3.70;;;2.10;;
25127;SDS011;13107;51.304;6.866;2023-11-22T15:26:03;2.67;;;1.87;;
25127;SDS011;13107;51.304;6.866;2023-11-22T15:30:05;3.65;;;2.20;;
25127;SDS011;13107;51.304;6.866;2023-11-22T15:34:09;3.58;;;2.10;;
25127;SDS011;13107;51.304;6.866;2023-11-22T15:38:12;5.82;;;2.53;;
25127;SDS011;13107;51.304;6.866;2023-11-22T15:42:14;6.72;;;3.10;;
25127;SDS011;13107;51.304;6.866;2023-11-22T15:46:17;5.72;;;3.08;;
25127;SDS011;13107;51.304;6.866;2023-11-22T15:50:20;6.32;;;3.47;;
25127;SDS011;13107;51.304;6.866;2023-11-22T15:54:22;7.32;;;3.65;;
25127;SDS011;13107;51.304;6.866;2023-11-22T15:58:24;7.20;;;3.87;;
25127;SDS011;13107;51.304;6.866;2023-11-22T16:02:26;6.45;;;3.72;;
25127;SDS011;13107;51.304;6.866;2023-11-22T16:06:29;7.55;;;4.37;;
25127;SDS011;13107;51.304;6.866;2023-11-22T16:10:31;7.18;;;4.07;;
25127;SDS011;13107;51.304;6.866;2023-11-22T16:14:32;7.20;;;4.10;;
25127;SDS011;13107;51.304;6.866;2023-11-22T16:18:34;5.72;;;3.60;;
25127;SDS011;13107;51.304;6.866;2023-11-22T16:22:38;6.28;;;3.53;;
25127;SDS011;13107;51.304;6.866;2023-11-22T16:26:40;5.50;;;3.65;;
25127;SDS011;13107;51.304;6.866;2023-11-22T16:30:42;5.87;;;3.37;;
25127;SDS011;13107;51.304;6.866;2023-11-22T16:34:44;6.75;;;3.40;;
25127;SDS011;13107;51.304;6.866;2023-11-22T16:38:46;15.80;;;3.90;;
25127;SDS011;13107;51.304;6.866;2023-11-22T16:42:48;6.78;;;3.10;;
25127;SDS011;13107;51.304;6.866;2023-11-22T16:46:50;6.82;;;3.87;;
25127;SDS011;13107;51.304;6.866;2023-11-22T16:50:52;5.47;;;3.35;;
25127;SDS011;13107;51.304;6.866;2023-11-22T16:54:54;7.68;;;3.70;;
25127;SDS011;13107;51.304;6.866;2023-11-22T16:58:56;7.53;;;4.47;;
25127;SDS011;13107;51.304;6.866;2023-11-22T17:02:58;6.75;;;3.83;;
25127;SDS011;13107;51.304;6.866;2023-11-22T17:07:02;7.82;;;4.78;;
25127;SDS011;13107;51.304;6.866;2023-11-22T17:11:04;8.65;;;4.47;;
25127;SDS011;13107;51.304;6.866;2023-11-22T17:15:06;8.73;;;5.35;;
25127;SDS011;13107;51.304;6.866;2023-11-22T17:19:08;9.02;;;5.32;;
25127;SDS011;13107;51.304;6.866;2023-11-22T17:23:10;10.45;;;5.82;;
25127;SDS011;13107;51.304;6.866;2023-11-22T17:27:12;11.85;;;6.20;;
25127;SDS011;13107;51.304;6.866;2023-11-22T17:31:14;12.65;;;6.78;;
25127;SDS011;13107;51.304;6.866;2023-11-22T17:35:16;13.50;;;6.87;;
25127;SDS011;13107;51.304;6.866;2023-11-22T17:39:18;11.55;;;7.65;;
25127;SDS011;13107;51.304;6.866;2023-11-22T17:43:22;13.18;;;7.65;;
25127;SDS011;13107;51.304;6.866;2023-11-22T17:47:24;14.45;;;7.45;;
25127;SDS011;13107;51.304;6.866;2023-11-22T17:51:27;16.15;;;8.25;;
25127;SDS011;13107;51.304;6.866;2023-11-22T17:55:29;13.77;;;7.80;;
25127;SDS011;13107;51.304;6.866;2023-11-22T17:59:31;11.18;;;6.97;;
25127;SDS011;13107;51.304;6.866;2023-11-22T18:03:33;19.30;;;8.85;;
25127;SDS011;13107;51.304;6.866;2023-11-22T18:07:36;14.32;;;7.82;;
25127;SDS011;13107;51.304;6.866;2023-11-22T18:11:38;13.88;;;7.45;;
25127;SDS011;13107;51.304;6.866;2023-11-22T18:15:40;12.30;;;8.13;;
25127;SDS011;13107;51.304;6.866;2023-11-22T18:19:44;15.63;;;8.40;;
25127;SDS011;13107;51.304;6.866;2023-11-22T18:23:45;15.93;;;8.98;;
25127;SDS011;13107;51.304;6.866;2023-11-22T18:27:47;14.82;;;8.48;;
25127;SDS011;13107;51.304;6.866;2023-11-22T18:31:52;15.20;;;8.07;;
25127;SDS011;13107;51.304;6.866;2023-11-22T18:35:56;13.55;;;7.82;;
25127;SDS011;13107;51.304;6.866;2023-11-22T18:39:58;14.82;;;8.02;;
25127;SDS011;13107;51.304;6.866;2023-11-22T18:44:00;17.20;;;9.63;;
25127;SDS011;13107;51.304;6.866;2023-11-22T18:48:02;20.02;;;8.95;;
25127;SDS011;13107;51.304;6.866;2023-11-22T18:52:04;15.85;;;8.88;;
25127;SDS011;13107;51.304;6.866;2023-11-22T18:56:06;14.82;;;8.82;;
25127;SDS011;13107;51.304;6.866;2023-11-22T19:00:08;18.42;;;9.10;;
25127;SDS011;13107;51.304;6.866;2023-11-22T19:04:12;16.08;;;8.52;;
25127;SDS011;13107;51.304;6.866;2023-11-22T19:08:13;16.10;;;8.25;;
25127;SDS011;13107;51.304;6.866;2023-11-22T19:12:17;14.85;;;7.97;;
25127;SDS011;13107;51.304;6.866;2023-11-22T19:16:19;12.32;;;6.75;;
25127;SDS011;13107;51.304;6.866;2023-11-22T19:20:24;12.13;;;7.43;;
25127;SDS011;13107;51.304;6.866;2023-11-22T19:24:28;11.95;;;7.18;;
25127;SDS011;13107;51.304;6.866;2023-11-22T19:28:30;13.68;;;7.50;;
25127;SDS011;13107;51.304;6.866;2023-11-22T19:32:32;13.15;;;7.60;;
25127;SDS011;13107;51.304;6.866;2023-11-22T19:36:34;14.73;;;7.43;;
25127;SDS011;13107;51.304;6.866;2023-11-22T19:40:36;12.68;;;7.60;;
25127;SDS011;13107;51.304;6.866;2023-11-22T19:44:37;15.90;;;8.32;;
25127;SDS011;13107;51.304;6.866;2023-11-22T19:48:39;15.05;;;8.45;;
25127;SDS011;13107;51.304;6.866;2023-11-22T19:52:41;17.37;;;9.23;;
25127;SDS011;13107;51.304;6.866;2023-11-22T19:56:43;17.23;;;9.48;;
25127;SDS011;13107;51.304;6.866;2023-11-22T20:00:45;17.52;;;8.90;;
25127;SDS011;13107;51.304;6.866;2023-11-22T20:04:47;20.58;;;9.43;;
25127;SDS011;13107;51.304;6.866;2023-11-22T20:08:49;16.20;;;9.50;;
25127;SDS011;13107;51.304;6.866;2023-11-22T20:12:51;16.50;;;9.35;;
25127;SDS011;13107;51.304;6.866;2023-11-22T20:16:53;17.90;;;10.15;;
25127;SDS011;13107;51.304;6.866;2023-11-22T20:20:54;18.55;;;10.45;;
25127;SDS011;13107;51.304;6.866;2023-11-22T20:24:56;21.70;;;10.80;;
25127;SDS011;13107;51.304;6.866;2023-11-22T20:28:59;20.25;;;10.73;;
25127;SDS011;13107;51.304;6.866;2023-11-22T20:33:02;23.85;;;11.25;;
25127;SDS011;13107;51.304;6.866;2023-11-22T20:37:03;20.52;;;11.52;;
25127;SDS011;13107;51.304;6.866;2023-11-22T20:41:05;20.23;;;11.48;;
25127;SDS011;13107;51.304;6.866;2023-11-22T20:45:07;21.15;;;11.57;;
25127;SDS011;13107;51.304;6.866;2023-11-22T20:49:09;21.67;;;11.43;;
25127;SDS011;13107;51.304;6.866;2023-11-22T20:53:11;23.90;;;12.60;;
25127;SDS011;13107;51.304;6.866;2023-11-22T20:57:15;22.52;;;11.90;;
25127;SDS011;13107;51.304;6.866;2023-11-22T21:01:18;23.67;;;11.82;;
25127;SDS011;13107;51.304;6.866;2023-11-22T21:05:20;23.45;;;12.32;;
25127;SDS011;13107;51.304;6.866;2023-11-22T21:09:21;24.67;;;12.55;;
25127;SDS011;13107;51.304;6.866;2023-11-22T21:13:24;24.85;;;12.23;;
25127;SDS011;13107;51.304;6.866;2023-11-22T21:17:26;24.12;;;11.70;;
25127;SDS011;13107;51.304;6.866;2023-11-22T21:21:42;20.15;;;11.32;;
25127;SDS011;13107;51.304;6.866;2023-11-22T21:25:47;22.33;;;12.20;;
25127;SDS011;13107;51.304;6.866;2023-11-22T21:29:51;17.37;;;10.75;;
25127;SDS011;13107;51.304;6.866;2023-11-22T21:33:54;22.13;;;11.60;;
25127;SDS011;13107;51.304;6.866;2023-11-22T21:37:56;19.52;;;10.85;;
25127;SDS011;13107;51.304;6.866;2023-11-22T21:41:58;24.75;;;11.95;;
25127;SDS011;13107;51.304;6.866;2023-11-22T21:46:00;21.15;;;11.65;;
25127;SDS011;13107;51.304;6.866;2023-11-22T21:50:05;21.12;;;11.38;;
25127;SDS011;13107;51.304;6.866;2023-11-22T21:54:08;17.25;;;11.15;;
25127;SDS011;13107;51.304;6.866;2023-11-22T21:58:10;21.77;;;11.12;;
25127;SDS011;13107;51.304;6.866;2023-11-22T22:02:13;17.87;;;10.68;;
25127;SDS011;13107;51.304;6.866;2023-11-22T22:06:18;19.40;;;10.70;;
25127;SDS011;13107;51.304;6.866;2023-11-22T22:10:23;17.92;;;10.43;;
25127;SDS011;13107;51.304;6.866;2023-11-22T22:14:25;15.30;;;10.10;;
25127;SDS011;13107;51.304;6.866;2023-11-22T22:18:26;19.75;;;10.68;;
25127;SDS011;13107;51.304;6.866;2023-11-22T22:22:28;20.73;;;10.02;;
25127;SDS011;13107;51.304;6.866;2023-11-22T22:26:30;20.83;;;11.23;;
25127;SDS011;13107;51.304;6.866;2023-11-22T22:30:32;16.75;;;9.75;;
25127;SDS011;13107;51.304;6.866;2023-11-22T22:34:35;16.80;;;9.50;;
25127;SDS011;13107;51.304;6.866;2023-11-22T22:38:37;18.35;;;9.63;;
25127;SDS011;13107;51.304;6.866;2023-11-22T22:42:39;17.35;;;10.00;;
25127;SDS011;13107;51.304;6.866;2023-11-22T22:46:41;17.35;;;10.25;;
25127;SDS011;13107;51.304;6.866;2023-11-22T22:50:45;19.23;;;9.95;;
25127;SDS011;13107;51.304;6.866;2023-11-22T22:54:48;14.13;;;9.27;;
25127;SDS011;13107;51.304;6.866;2023-11-22T22:58:50;16.87;;;9.65;;
25127;SDS011;13107;51.304;6.866;2023-11-22T23:02:52;19.67;;;9.93;;
25127;SDS011;13107;51.304;6.866;2023-11-22T23:06:54;19.30;;;8.95;;
25127;SDS011;13107;51.304;6.866;2023-11-22T23:10:55;14.35;;;8.65;;
25127;SDS011;13107;51.304;6.866;2023-11-22T23:14:57;15.88;;;9.52;;
25127;SDS011;13107;51.304;6.866;2023-11-22T23:18:59;13.38;;;8.55;;
25127;SDS011;13107;51.304;6.866;2023-11-22T23:23:13;13.25;;;8.45;;
25127;SDS011;13107;51.304;6.866;2023-11-22T23:27:15;17.25;;;8.93;;
25127;SDS011;13107;51.304;6.866;2023-11-22T23:31:17;14.40;;;8.00;;
25127;SDS011;13107;51.304;6.866;2023-11-22T23:35:19;16.77;;;8.98;;
25127;SDS011;13107;51.304;6.866;2023-11-22T23:39:22;16.20;;;8.45;;
25127;SDS011;13107;51.304;6.866;2023-11-22T23:43:24;14.82;;;8.45;;
25127;SDS011;13107;51.304;6.866;2023-11-22T23:47:30;17.83;;;9.35;;
25127;SDS011;13107;51.304;6.866;2023-11-22T23:51:34;15.18;;;8.15;;
25127;SDS011;13107;51.304;6.866;2023-11-22T23:55:35;12.65;;;7.97;;
25127;SDS011;13107;51.304;6.866;2023-11-22T23:59:37;17.15;;;9.13;;
